sensor_id;sensor_type;location;lat;lon;timestamp;pressure;altitude;pressure_sealevel;temperature;humidity
47330;BME280;33060;50.178;7.570;2022-12-29T00:01:41;96174.56;;;8.77;97.59
47330;BME280;33060;50.178;7.570;2022-12-29T00:04:11;96174.09;;;8.72;98.81
47330;BME280;33060;50.178;7.570;2022-12-29T00:06:42;96171.84;;;8.78;98.57
47330;BME280;33060;50.178;7.570;2022-12-29T00:09:11;96172.88;;;8.65;100.00
47330;BME280;33060;50.178;7.570;2022-12-29T00:11:38;96163.56;;;8.61;100.00
47330;BME280;33060;50.178;7.570;2022-12-29T00:14:05;96163.78;;;8.58;100.00
47330;BME280;33060;50.178;7.570;2022-12-29T00:16:51;96164.16;;;8.53;100.00
47330;BME280;33060;50.178;7.570;2022-12-29T00:19:19;96164.63;;;8.58;100.00
47330;BME280;33060;50.178;7.570;2022-12-29T00:22:04;96164.28;;;8.52;100.00
47330;BME280;33060;50.178;7.570;2022-12-29T00:24:49;96162.22;;;8.55;100.00
47330;BME280;33060;50.178;7.570;2022-12-29T00:27:29;96152.19;;;8.49;100.00
47330;BME280;33060;50.178;7.570;2022-12-29T00:30:19;96148.00;;;8.46;100.00
47330;BME280;33060;50.178;7.570;2022-12-29T00:33:09;96145.38;;;8.46;100.00
47330;BME280;33060;50.178;7.570;2022-12-29T00:35:59;96138.19;;;8.48;100.00
47330;BME280;33060;50.178;7.570;2022-12-29T00:38:29;96149.16;;;8.42;100.00
47330;BME280;33060;50.178;7.570;2022-12-29T00:41:16;96125.53;;;8.42;100.00
47330;BME280;33060;50.178;7.570;2022-12-29T00:44:18;96128.41;;;8.50;100.00
47330;BME280;33060;50.178;7.570;2022-12-29T00:46:45;96117.19;;;8.48;100.00
47330;BME280;33060;50.178;7.570;2022-12-29T00:49:13;96117.44;;;8.45;100.00
47330;BME280;33060;50.178;7.570;2022-12-29T00:52:07;96118.72;;;8.51;100.00
47330;BME280;33060;50.178;7.570;2022-12-29T00:54:36;96119.59;;;8.52;100.00
47330;BME280;33060;50.178;7.570;2022-12-29T00:57:05;96108.00;;;8.54;100.00
47330;BME280;33060;50.178;7.570;2022-12-29T00:59:35;96097.69;;;8.51;100.00
47330;BME280;33060;50.178;7.570;2022-12-29T01:02:02;96098.44;;;8.53;100.00
47330;BME280;33060;50.178;7.570;2022-12-29T01:04:29;96102.88;;;8.53;100.00
47330;BME280;33060;50.178;7.570;2022-12-29T01:06:56;96087.44;;;8.59;100.00
47330;BME280;33060;50.178;7.570;2022-12-29T01:09:23;96093.31;;;8.63;100.00
47330;BME280;33060;50.178;7.570;2022-12-29T01:12:09;96103.44;;;8.67;100.00
47330;BME280;33060;50.178;7.570;2022-12-29T01:14:36;96103.22;;;8.70;100.00
47330;BME280;33060;50.178;7.570;2022-12-29T01:17:04;96092.47;;;8.73;100.00
47330;BME280;33060;50.178;7.570;2022-12-29T01:19:31;96093.78;;;8.79;100.00
47330;BME280;33060;50.178;7.570;2022-12-29T01:21:59;96089.97;;;8.72;100.00
47330;BME280;33060;50.178;7.570;2022-12-29T01:24:27;96083.25;;;8.68;100.00
47330;BME280;33060;50.178;7.570;2022-12-29T01:26:53;96086.72;;;8.68;100.00
47330;BME280;33060;50.178;7.570;2022-12-29T01:29:21;96084.00;;;8.70;100.00
47330;BME280;33060;50.178;7.570;2022-12-29T01:31:48;96082.31;;;8.80;100.00
47330;BME280;33060;50.178;7.570;2022-12-29T01:34:16;96091.16;;;8.79;100.00
47330;BME280;33060;50.178;7.570;2022-12-29T01:36:43;96092.94;;;8.78;100.00
47330;BME280;33060;50.178;7.570;2022-12-29T01:39:11;96088.16;;;8.84;100.00
47330;BME280;33060;50.178;7.570;2022-12-29T01:41:39;96084.47;;;8.86;100.00
47330;BME280;33060;50.178;7.570;2022-12-29T01:47:10;96082.66;;;8.87;100.00
47330;BME280;33060;50.178;7.570;2022-12-29T01:49:37;96081.72;;;8.88;100.00
47330;BME280;33060;50.178;7.570;2022-12-29T01:52:06;96063.31;;;8.88;100.00
47330;BME280;33060;50.178;7.570;2022-12-29T01:54:38;96079.53;;;8.93;99.57
47330;BME280;33060;50.178;7.570;2022-12-29T01:57:13;96070.22;;;9.00;98.23
47330;BME280;33060;50.178;7.570;2022-12-29T01:59:50;96076.31;;;9.00;98.05
47330;BME280;33060;50.178;7.570;2022-12-29T02:02:19;96072.50;;;9.04;97.53
47330;BME280;33060;50.178;7.570;2022-12-29T02:04:46;96072.09;;;9.09;96.71
47330;BME280;33060;50.178;7.570;2022-12-29T02:07:21;96065.44;;;9.05;97.34
47330;BME280;33060;50.178;7.570;2022-12-29T02:09:50;96062.53;;;9.08;96.91
47330;BME280;33060;50.178;7.570;2022-12-29T02:12:19;96072.09;;;9.09;96.27
47330;BME280;33060;50.178;7.570;2022-12-29T02:14:48;96075.22;;;9.14;96.15
47330;BME280;33060;50.178;7.570;2022-12-29T02:31:57;96055.13;;;9.13;96.59
47330;BME280;33060;50.178;7.570;2022-12-29T02:34:53;96049.03;;;9.13;96.77
47330;BME280;33060;50.178;7.570;2022-12-29T02:37:29;96058.50;;;9.04;98.08
47330;BME280;33060;50.178;7.570;2022-12-29T02:40:14;96043.44;;;9.06;98.23
47330;BME280;33060;50.178;7.570;2022-12-29T02:42:53;96045.84;;;8.98;99.63
47330;BME280;33060;50.178;7.570;2022-12-29T02:48:59;96038.16;;;9.06;97.93
47330;BME280;33060;50.178;7.570;2022-12-29T02:51:40;96036.38;;;9.06;97.74
47330;BME280;33060;50.178;7.570;2022-12-29T02:54:10;96035.75;;;9.03;98.26
47330;BME280;33060;50.178;7.570;2022-12-29T02:56:55;96027.44;;;8.98;98.79
47330;BME280;33060;50.178;7.570;2022-12-29T02:59:22;96036.63;;;8.92;100.00
47330;BME280;33060;50.178;7.570;2022-12-29T03:02:01;96029.00;;;8.89;100.00
47330;BME280;33060;50.178;7.570;2022-12-29T03:10:29;96020.38;;;8.98;97.24
47330;BME280;33060;50.178;7.570;2022-12-29T03:13:08;96009.72;;;9.00;96.28
47330;BME280;33060;50.178;7.570;2022-12-29T03:16:05;95989.50;;;9.00;95.13
47330;BME280;33060;50.178;7.570;2022-12-29T03:18:55;95994.50;;;9.15;93.23
47330;BME280;33060;50.178;7.570;2022-12-29T03:21:34;95992.97;;;9.12;92.83
47330;BME280;33060;50.178;7.570;2022-12-29T03:24:26;96006.13;;;9.12;92.61
47330;BME280;33060;50.178;7.570;2022-12-29T03:26:59;95992.31;;;9.20;91.47
47330;BME280;33060;50.178;7.570;2022-12-29T03:29:34;95987.78;;;9.22;90.94
47330;BME280;33060;50.178;7.570;2022-12-29T03:32:04;95995.69;;;9.22;91.31
47330;BME280;33060;50.178;7.570;2022-12-29T03:34:31;95993.88;;;9.22;91.18
47330;BME280;33060;50.178;7.570;2022-12-29T03:37:08;95979.50;;;9.26;89.96
47330;BME280;33060;50.178;7.570;2022-12-29T03:39:36;95967.78;;;9.30;90.08
47330;BME280;33060;50.178;7.570;2022-12-29T03:42:12;95967.00;;;9.40;88.72
47330;BME280;33060;50.178;7.570;2022-12-29T03:44:42;95967.50;;;9.33;89.76
47330;BME280;33060;50.178;7.570;2022-12-29T03:47:13;95988.69;;;9.32;89.74
47330;BME280;33060;50.178;7.570;2022-12-29T03:49:41;95973.13;;;9.29;90.47
47330;BME280;33060;50.178;7.570;2022-12-29T03:52:08;95988.63;;;9.22;91.55
47330;BME280;33060;50.178;7.570;2022-12-29T03:54:40;95976.66;;;9.18;91.99
47330;BME280;33060;50.178;7.570;2022-12-29T03:57:08;95985.50;;;9.17;92.68
47330;BME280;33060;50.178;7.570;2022-12-29T03:59:45;95985.25;;;9.20;92.23
47330;BME280;33060;50.178;7.570;2022-12-29T04:02:12;95983.09;;;9.25;91.13
47330;BME280;33060;50.178;7.570;2022-12-29T04:04:40;95980.81;;;9.21;91.42
47330;BME280;33060;50.178;7.570;2022-12-29T04:07:07;95989.88;;;9.28;90.68
47330;BME280;33060;50.178;7.570;2022-12-29T04:09:34;95982.84;;;9.28;90.49
47330;BME280;33060;50.178;7.570;2022-12-29T04:12:01;95975.78;;;9.29;90.10
47330;BME280;33060;50.178;7.570;2022-12-29T04:14:28;95971.09;;;9.32;89.91
47330;BME280;33060;50.178;7.570;2022-12-29T04:16:55;95979.13;;;9.31;90.10
47330;BME280;33060;50.178;7.570;2022-12-29T04:19:22;95971.81;;;9.34;90.34
47330;BME280;33060;50.178;7.570;2022-12-29T04:21:49;95974.31;;;9.36;90.09
47330;BME280;33060;50.178;7.570;2022-12-29T04:24:16;95973.69;;;9.44;89.63
47330;BME280;33060;50.178;7.570;2022-12-29T04:26:44;95973.34;;;9.37;89.54
47330;BME280;33060;50.178;7.570;2022-12-29T04:29:28;95978.03;;;9.33;90.24
47330;BME280;33060;50.178;7.570;2022-12-29T04:32:04;95972.38;;;9.38;89.00
47330;BME280;33060;50.178;7.570;2022-12-29T04:34:34;95962.81;;;9.37;89.48
47330;BME280;33060;50.178;7.570;2022-12-29T04:37:00;95977.53;;;9.40;88.52
47330;BME280;33060;50.178;7.570;2022-12-29T04:39:27;95953.72;;;9.41;87.74
47330;BME280;33060;50.178;7.570;2022-12-29T04:41:54;95962.44;;;9.42;87.94
47330;BME280;33060;50.178;7.570;2022-12-29T04:44:21;95955.72;;;9.49;87.22
47330;BME280;33060;50.178;7.570;2022-12-29T04:46:53;95964.59;;;9.48;86.87
47330;BME280;33060;50.178;7.570;2022-12-29T04:49:38;95972.47;;;9.48;87.39
47330;BME280;33060;50.178;7.570;2022-12-29T04:52:40;95979.22;;;9.41;87.92
47330;BME280;33060;50.178;7.570;2022-12-29T04:55:09;95979.91;;;9.43;88.10
47330;BME280;33060;50.178;7.570;2022-12-29T04:57:36;95987.09;;;9.41;88.17
47330;BME280;33060;50.178;7.570;2022-12-29T05:00:03;95980.28;;;9.38;88.34
47330;BME280;33060;50.178;7.570;2022-12-29T05:02:31;95968.69;;;9.41;88.18
47330;BME280;33060;50.178;7.570;2022-12-29T05:04:59;95980.88;;;9.42;88.24
47330;BME280;33060;50.178;7.570;2022-12-29T05:07:26;95964.13;;;9.43;88.38
47330;BME280;33060;50.178;7.570;2022-12-29T05:09:54;95976.81;;;9.38;88.72
47330;BME280;33060;50.178;7.570;2022-12-29T05:12:20;95992.38;;;9.41;88.85
47330;BME280;33060;50.178;7.570;2022-12-29T05:14:56;95985.81;;;9.35;90.04
47330;BME280;33060;50.178;7.570;2022-12-29T05:17:23;95983.09;;;9.25;91.10
47330;BME280;33060;50.178;7.570;2022-12-29T05:19:50;95978.09;;;9.22;91.83
47330;BME280;33060;50.178;7.570;2022-12-29T05:22:17;95986.81;;;9.23;91.60
47330;BME280;33060;50.178;7.570;2022-12-29T05:24:44;95981.09;;;9.18;92.43
47330;BME280;33060;50.178;7.570;2022-12-29T05:27:11;95980.00;;;9.20;91.44
47330;BME280;33060;50.178;7.570;2022-12-29T05:29:56;95977.97;;;9.24;91.14
47330;BME280;33060;50.178;7.570;2022-12-29T05:32:23;95969.47;;;9.20;91.68
47330;BME280;33060;50.178;7.570;2022-12-29T05:34:51;95970.63;;;9.27;91.17
47330;BME280;33060;50.178;7.570;2022-12-29T05:37:18;95959.75;;;9.32;90.53
47330;BME280;33060;50.178;7.570;2022-12-29T05:39:45;95972.06;;;9.31;90.49
47330;BME280;33060;50.178;7.570;2022-12-29T05:42:12;95968.84;;;9.28;91.12
47330;BME280;33060;50.178;7.570;2022-12-29T05:45:08;95982.00;;;9.28;91.28
47330;BME280;33060;50.178;7.570;2022-12-29T05:47:47;95979.50;;;9.26;91.39
47330;BME280;33060;50.178;7.570;2022-12-29T05:50:36;95987.25;;;9.28;91.57
47330;BME280;33060;50.178;7.570;2022-12-29T05:53:10;95979.63;;;9.25;91.64
47330;BME280;33060;50.178;7.570;2022-12-29T05:55:37;95989.44;;;9.23;91.59
47330;BME280;33060;50.178;7.570;2022-12-29T05:58:12;95991.56;;;9.29;91.09
47330;BME280;33060;50.178;7.570;2022-12-29T06:00:40;95983.44;;;9.32;90.24
47330;BME280;33060;50.178;7.570;2022-12-29T06:03:09;95977.06;;;9.34;90.04
47330;BME280;33060;50.178;7.570;2022-12-29T06:05:36;95976.72;;;9.39;89.06
47330;BME280;33060;50.178;7.570;2022-12-29T06:08:03;95969.38;;;9.43;89.05
47330;BME280;33060;50.178;7.570;2022-12-29T06:10:30;95980.75;;;9.43;89.24
47330;BME280;33060;50.178;7.570;2022-12-29T06:13:01;95979.56;;;9.36;91.08
47330;BME280;33060;50.178;7.570;2022-12-29T06:15:29;95988.63;;;9.22;93.20
47330;BME280;33060;50.178;7.570;2022-12-29T06:17:56;95976.00;;;9.05;96.70
47330;BME280;33060;50.178;7.570;2022-12-29T06:20:23;95975.75;;;9.08;95.60
47330;BME280;33060;50.178;7.570;2022-12-29T06:22:51;95976.97;;;9.04;97.01
47330;BME280;33060;50.178;7.570;2022-12-29T06:25:18;95969.78;;;9.06;96.91
47330;BME280;33060;50.178;7.570;2022-12-29T06:27:45;95963.47;;;8.97;98.50
47330;BME280;33060;50.178;7.570;2022-12-29T06:30:12;95976.13;;;8.92;99.83
47330;BME280;33060;50.178;7.570;2022-12-29T06:32:39;95968.78;;;8.86;100.00
47330;BME280;33060;50.178;7.570;2022-12-29T06:35:09;95965.53;;;8.83;100.00
47330;BME280;33060;50.178;7.570;2022-12-29T06:37:41;95972.81;;;8.90;100.00
47330;BME280;33060;50.178;7.570;2022-12-29T06:40:08;95973.16;;;8.86;100.00
47330;BME280;33060;50.178;7.570;2022-12-29T06:42:53;95967.31;;;8.82;100.00
47330;BME280;33060;50.178;7.570;2022-12-29T06:45:55;95968.41;;;8.80;100.00
47330;BME280;33060;50.178;7.570;2022-12-29T06:48:22;95980.47;;;8.82;100.00
47330;BME280;33060;50.178;7.570;2022-12-29T06:50:48;95979.28;;;8.86;100.00
47330;BME280;33060;50.178;7.570;2022-12-29T06:53:15;95972.22;;;8.87;100.00
47330;BME280;33060;50.178;7.570;2022-12-29T06:55:42;95966.09;;;8.97;98.59
47330;BME280;33060;50.178;7.570;2022-12-29T06:58:08;95970.28;;;9.00;98.63
47330;BME280;33060;50.178;7.570;2022-12-29T07:00:35;95965.97;;;8.99;98.18
47330;BME280;33060;50.178;7.570;2022-12-29T07:03:02;95970.66;;;8.95;97.99
47330;BME280;33060;50.178;7.570;2022-12-29T07:05:29;95962.59;;;9.08;96.10
47330;BME280;33060;50.178;7.570;2022-12-29T07:07:58;95982.66;;;9.09;95.69
47330;BME280;33060;50.178;7.570;2022-12-29T07:10:25;95972.97;;;9.10;96.11
47330;BME280;33060;50.178;7.570;2022-12-29T07:12:52;95976.84;;;9.05;96.42
47330;BME280;33060;50.178;7.570;2022-12-29T07:15:19;95982.66;;;9.09;95.74
47330;BME280;33060;50.178;7.570;2022-12-29T07:17:45;95983.91;;;9.05;95.87
47330;BME280;33060;50.178;7.570;2022-12-29T07:20:12;95982.94;;;9.06;96.14
47330;BME280;33060;50.178;7.570;2022-12-29T07:22:38;95978.38;;;9.08;95.25
47330;BME280;33060;50.178;7.570;2022-12-29T07:25:05;95988.63;;;9.11;95.26
47330;BME280;33060;50.178;7.570;2022-12-29T07:27:32;95974.91;;;9.07;94.61
47330;BME280;33060;50.178;7.570;2022-12-29T07:29:58;95996.03;;;9.17;93.91
47330;BME280;33060;50.178;7.570;2022-12-29T07:32:25;96001.44;;;9.16;93.94
47330;BME280;33060;50.178;7.570;2022-12-29T07:34:52;95999.25;;;9.21;93.10
47330;BME280;33060;50.178;7.570;2022-12-29T07:37:18;95999.84;;;9.24;92.17
47330;BME280;33060;50.178;7.570;2022-12-29T07:39:45;96010.94;;;9.28;92.13
47330;BME280;33060;50.178;7.570;2022-12-29T07:42:12;96021.59;;;9.26;92.51
47330;BME280;33060;50.178;7.570;2022-12-29T07:44:42;96024.97;;;9.17;94.18
47330;BME280;33060;50.178;7.570;2022-12-29T07:47:15;96043.38;;;9.17;95.71
47330;BME280;33060;50.178;7.570;2022-12-29T07:49:42;96043.88;;;9.11;96.65
47330;BME280;33060;50.178;7.570;2022-12-29T07:52:08;96056.56;;;9.06;98.28
47330;BME280;33060;50.178;7.570;2022-12-29T07:54:35;96065.91;;;8.99;100.00
47330;BME280;33060;50.178;7.570;2022-12-29T07:57:02;96057.44;;;8.95;100.00
47330;BME280;33060;50.178;7.570;2022-12-29T07:59:28;96096.53;;;8.89;100.00
47330;BME280;33060;50.178;7.570;2022-12-29T08:01:55;96103.72;;;8.87;100.00
47330;BME280;33060;50.178;7.570;2022-12-29T08:04:22;96087.94;;;8.87;98.66
47330;BME280;33060;50.178;7.570;2022-12-29T08:06:49;96094.50;;;8.81;99.14
47330;BME280;33060;50.178;7.570;2022-12-29T08:09:16;96079.69;;;8.80;97.33
47330;BME280;33060;50.178;7.570;2022-12-29T08:11:49;96072.88;;;8.77;97.17
47330;BME280;33060;50.178;7.570;2022-12-29T08:14:16;96086.00;;;8.66;97.75
47330;BME280;33060;50.178;7.570;2022-12-29T08:16:42;96085.53;;;8.61;99.06
47330;BME280;33060;50.178;7.570;2022-12-29T08:19:12;96070.25;;;8.55;98.73
47330;BME280;33060;50.178;7.570;2022-12-29T08:21:39;96083.00;;;8.48;98.53
47330;BME280;33060;50.178;7.570;2022-12-29T08:24:06;96099.88;;;8.46;98.97
47330;BME280;33060;50.178;7.570;2022-12-29T08:26:34;96096.41;;;8.45;99.05
47330;BME280;33060;50.178;7.570;2022-12-29T08:29:00;96092.81;;;8.46;98.84
47330;BME280;33060;50.178;7.570;2022-12-29T08:31:27;96098.53;;;8.40;100.00
47330;BME280;33060;50.178;7.570;2022-12-29T08:33:54;96106.78;;;8.36;100.00
47330;BME280;33060;50.178;7.570;2022-12-29T08:36:20;96102.38;;;8.36;100.00
47330;BME280;33060;50.178;7.570;2022-12-29T08:38:47;96108.84;;;8.43;100.00
47330;BME280;33060;50.178;7.570;2022-12-29T08:41:13;96098.69;;;8.61;100.00
47330;BME280;33060;50.178;7.570;2022-12-29T08:43:40;96108.84;;;8.66;100.00
47330;BME280;33060;50.178;7.570;2022-12-29T08:46:07;96106.19;;;8.77;100.00
47330;BME280;33060;50.178;7.570;2022-12-29T08:48:33;96098.78;;;8.93;100.00
47330;BME280;33060;50.178;7.570;2022-12-29T08:51:00;96103.06;;;8.94;100.00
47330;BME280;33060;50.178;7.570;2022-12-29T08:53:27;96094.63;;;8.80;100.00
47330;BME280;33060;50.178;7.570;2022-12-29T08:55:58;96095.81;;;8.87;100.00
47330;BME280;33060;50.178;7.570;2022-12-29T08:58:37;96090.78;;;8.84;100.00
47330;BME280;33060;50.178;7.570;2022-12-29T09:01:04;96105.25;;;8.78;100.00
47330;BME280;33060;50.178;7.570;2022-12-29T09:03:31;96102.50;;;8.80;100.00
47330;BME280;33060;50.178;7.570;2022-12-29T09:06:18;96100.00;;;8.89;98.63
47330;BME280;33060;50.178;7.570;2022-12-29T09:08:45;96117.56;;;8.89;97.73
47330;BME280;33060;50.178;7.570;2022-12-29T09:11:18;96116.72;;;8.88;97.67
47330;BME280;33060;50.178;7.570;2022-12-29T09:13:45;96119.81;;;8.93;97.41
47330;BME280;33060;50.178;7.570;2022-12-29T09:16:12;96128.78;;;8.91;97.82
47330;BME280;33060;50.178;7.570;2022-12-29T09:18:39;96139.31;;;8.91;98.34
47330;BME280;33060;50.178;7.570;2022-12-29T09:21:07;96144.44;;;8.81;100.00
47330;BME280;33060;50.178;7.570;2022-12-29T09:23:34;96143.75;;;8.79;100.00
47330;BME280;33060;50.178;7.570;2022-12-29T09:26:01;96152.94;;;8.73;100.00
47330;BME280;33060;50.178;7.570;2022-12-29T09:28:28;96151.97;;;8.63;100.00
47330;BME280;33060;50.178;7.570;2022-12-29T09:30:56;96144.09;;;8.63;100.00
47330;BME280;33060;50.178;7.570;2022-12-29T09:33:23;96142.16;;;8.65;100.00
47330;BME280;33060;50.178;7.570;2022-12-29T09:35:55;96151.13;;;8.63;100.00
47330;BME280;33060;50.178;7.570;2022-12-29T09:38:23;96142.78;;;8.69;100.00
47330;BME280;33060;50.178;7.570;2022-12-29T09:40:53;96138.34;;;8.92;100.00
47330;BME280;33060;50.178;7.570;2022-12-29T09:46:24;96129.03;;;8.99;98.17
47330;BME280;33060;50.178;7.570;2022-12-29T09:51:41;96148.16;;;9.23;94.97
47330;BME280;33060;50.178;7.570;2022-12-29T09:56:42;96146.91;;;9.50;93.27
47330;BME280;33060;50.178;7.570;2022-12-29T09:59:17;96154.41;;;9.66;91.17
47330;BME280;33060;50.178;7.570;2022-12-29T10:01:59;96147.03;;;9.80;88.67
47330;BME280;33060;50.178;7.570;2022-12-29T10:04:31;96156.00;;;9.89;89.04
47330;BME280;33060;50.178;7.570;2022-12-29T10:07:12;96139.34;;;10.20;86.27
47330;BME280;33060;50.178;7.570;2022-12-29T10:23:52;96153.84;;;10.15;83.84
47330;BME280;33060;50.178;7.570;2022-12-29T10:26:28;96160.16;;;10.35;81.81
47330;BME280;33060;50.178;7.570;2022-12-29T10:29:06;96157.25;;;10.59;78.39
47330;BME280;33060;50.178;7.570;2022-12-29T10:31:43;96154.00;;;10.76;78.08
47330;BME280;33060;50.178;7.570;2022-12-29T10:34:24;96152.03;;;10.47;78.97
47330;BME280;33060;50.178;7.570;2022-12-29T10:37:00;96155.09;;;10.11;78.86
47330;BME280;33060;50.178;7.570;2022-12-29T10:39:47;96185.34;;;9.84;79.28
47330;BME280;33060;50.178;7.570;2022-12-29T10:42:24;96167.22;;;9.59;79.75
47330;BME280;33060;50.178;7.570;2022-12-29T10:44:53;96172.94;;;9.64;80.35
47330;BME280;33060;50.178;7.570;2022-12-29T10:47:24;96179.66;;;9.68;80.67
47330;BME280;33060;50.178;7.570;2022-12-29T10:49:51;96184.88;;;9.79;80.29
47330;BME280;33060;50.178;7.570;2022-12-29T10:52:19;96190.84;;;9.81;79.83
47330;BME280;33060;50.178;7.570;2022-12-29T10:54:54;96191.72;;;9.82;79.54
47330;BME280;33060;50.178;7.570;2022-12-29T10:57:35;96186.91;;;9.87;78.26
47330;BME280;33060;50.178;7.570;2022-12-29T11:00:14;96191.19;;;9.88;78.05
47330;BME280;33060;50.178;7.570;2022-12-29T11:02:53;96191.84;;;9.69;76.37
47330;BME280;33060;50.178;7.570;2022-12-29T11:05:37;96194.84;;;9.76;76.96
47330;BME280;33060;50.178;7.570;2022-12-29T11:08:12;96195.94;;;9.62;76.88
47330;BME280;33060;50.178;7.570;2022-12-29T11:10:43;96212.09;;;9.46;77.19
47330;BME280;33060;50.178;7.570;2022-12-29T11:15:40;96211.16;;;9.58;75.99
47330;BME280;33060;50.178;7.570;2022-12-29T11:18:18;96215.56;;;9.58;75.51
47330;BME280;33060;50.178;7.570;2022-12-29T11:20:45;96213.66;;;9.60;76.60
47330;BME280;33060;50.178;7.570;2022-12-29T11:23:31;96213.41;;;9.63;75.79
47330;BME280;33060;50.178;7.570;2022-12-29T11:26:20;96206.06;;;9.78;74.88
47330;BME280;33060;50.178;7.570;2022-12-29T11:31:45;96216.59;;;9.78;73.16
47330;BME280;33060;50.178;7.570;2022-12-29T11:34:21;96206.66;;;9.81;73.54
47330;BME280;33060;50.178;7.570;2022-12-29T11:36:51;96211.25;;;9.68;74.32
47330;BME280;33060;50.178;7.570;2022-12-29T11:39:39;96202.88;;;9.63;74.77
47330;BME280;33060;50.178;7.570;2022-12-29T11:42:13;96230.19;;;9.51;74.25
47330;BME280;33060;50.178;7.570;2022-12-29T11:44:46;96224.44;;;9.57;74.58
47330;BME280;33060;50.178;7.570;2022-12-29T11:47:25;96225.28;;;9.57;74.73
47330;BME280;33060;50.178;7.570;2022-12-29T11:49:56;96223.13;;;9.51;74.14
47330;BME280;33060;50.178;7.570;2022-12-29T11:52:26;96224.88;;;9.62;74.71
47330;BME280;33060;50.178;7.570;2022-12-29T11:54:53;96231.38;;;9.58;75.36
47330;BME280;33060;50.178;7.570;2022-12-29T11:57:22;96234.47;;;9.52;75.80
47330;BME280;33060;50.178;7.570;2022-12-29T11:59:51;96231.59;;;9.66;75.46
47330;BME280;33060;50.178;7.570;2022-12-29T12:02:37;96215.19;;;9.74;75.35
47330;BME280;33060;50.178;7.570;2022-12-29T12:07:47;96222.34;;;9.83;72.10
47330;BME280;33060;50.178;7.570;2022-12-29T12:11:09;96219.81;;;9.93;71.40
47330;BME280;33060;50.178;7.570;2022-12-29T12:14:01;96209.66;;;10.20;69.35
47330;BME280;33060;50.178;7.570;2022-12-29T12:16:54;96208.75;;;10.10;69.83
47330;BME280;33060;50.178;7.570;2022-12-29T12:25:04;96225.69;;;9.85;70.08
47330;BME280;33060;50.178;7.570;2022-12-29T12:27:53;96233.59;;;9.85;71.15
47330;BME280;33060;50.178;7.570;2022-12-29T12:30:24;96224.38;;;9.79;71.30
47330;BME280;33060;50.178;7.570;2022-12-29T12:35:38;96223.94;;;10.06;69.45
47330;BME280;33060;50.178;7.570;2022-12-29T12:38:26;96215.19;;;10.17;69.57
47330;BME280;33060;50.178;7.570;2022-12-29T12:52:17;96211.06;;;10.35;69.69
47330;BME280;33060;50.178;7.570;2022-12-29T12:57:56;96194.94;;;10.50;68.44
47330;BME280;33060;50.178;7.570;2022-12-29T13:00:27;96211.31;;;10.32;67.34
47330;BME280;33060;50.178;7.570;2022-12-29T13:11:48;96213.84;;;10.55;67.73
47330;BME280;33060;50.178;7.570;2022-12-29T13:17:30;96207.22;;;10.39;67.23
47330;BME280;33060;50.178;7.570;2022-12-29T13:19:59;96211.31;;;10.32;67.03
47330;BME280;33060;50.178;7.570;2022-12-29T13:27:56;96217.53;;;10.31;67.78
47330;BME280;33060;50.178;7.570;2022-12-29T13:33:14;96237.84;;;10.08;67.30
47330;BME280;33060;50.178;7.570;2022-12-29T13:38:42;96230.97;;;9.85;67.89
47330;BME280;33060;50.178;7.570;2022-12-29T13:41:14;96221.25;;;9.85;67.69
47330;BME280;33060;50.178;7.570;2022-12-29T13:43:44;96224.16;;;9.82;68.42
47330;BME280;33060;50.178;7.570;2022-12-29T13:46:15;96230.16;;;9.73;68.53
47330;BME280;33060;50.178;7.570;2022-12-29T13:51:15;96246.94;;;9.50;70.05
47330;BME280;33060;50.178;7.570;2022-12-29T13:54:05;96237.97;;;9.41;70.22
47330;BME280;33060;50.178;7.570;2022-12-29T13:56:38;96226.13;;;9.35;69.44
47330;BME280;33060;50.178;7.570;2022-12-29T14:02:37;96245.97;;;9.28;70.70
47330;BME280;33060;50.178;7.570;2022-12-29T14:07:49;96253.41;;;9.23;71.17
47330;BME280;33060;50.178;7.570;2022-12-29T14:13:02;96248.34;;;8.98;72.43
47330;BME280;33060;50.178;7.570;2022-12-29T14:15:29;96261.03;;;9.04;72.53
47330;BME280;33060;50.178;7.570;2022-12-29T14:20:28;96255.97;;;8.90;73.73
47330;BME280;33060;50.178;7.570;2022-12-29T14:28:40;96262.31;;;8.87;74.57
47330;BME280;33060;50.178;7.570;2022-12-29T14:33:41;96258.75;;;8.99;73.55
47330;BME280;33060;50.178;7.570;2022-12-29T14:36:40;96261.50;;;9.09;71.95
47330;BME280;33060;50.178;7.570;2022-12-29T14:42:00;96273.09;;;9.06;71.74
47330;BME280;33060;50.178;7.570;2022-12-29T14:44:27;96282.53;;;9.09;71.58
47330;BME280;33060;50.178;7.570;2022-12-29T14:46:58;96277.66;;;9.16;71.87
47330;BME280;33060;50.178;7.570;2022-12-29T14:49:39;96283.38;;;9.21;71.62
47330;BME280;33060;50.178;7.570;2022-12-29T14:52:15;96290.44;;;9.20;71.48
47330;BME280;33060;50.178;7.570;2022-12-29T14:54:46;96296.78;;;9.18;71.43
47330;BME280;33060;50.178;7.570;2022-12-29T14:57:24;96293.53;;;9.03;72.16
47330;BME280;33060;50.178;7.570;2022-12-29T14:59:55;96295.75;;;8.85;72.31
47330;BME280;33060;50.178;7.570;2022-12-29T15:02:25;96297.91;;;8.80;72.74
47330;BME280;33060;50.178;7.570;2022-12-29T15:04:54;96299.91;;;8.76;72.62
47330;BME280;33060;50.178;7.570;2022-12-29T15:07:27;96290.34;;;8.75;71.65
47330;BME280;33060;50.178;7.570;2022-12-29T15:10:03;96289.75;;;8.72;71.72
47330;BME280;33060;50.178;7.570;2022-12-29T15:12:38;96292.44;;;8.59;72.04
47330;BME280;33060;50.178;7.570;2022-12-29T15:17:43;96299.31;;;8.38;72.49
47330;BME280;33060;50.178;7.570;2022-12-29T15:22:50;96295.56;;;8.16;72.89
47330;BME280;33060;50.178;7.570;2022-12-29T15:25:18;96290.91;;;8.09;73.14
47330;BME280;33060;50.178;7.570;2022-12-29T15:27:57;96294.56;;;8.06;72.63
47330;BME280;33060;50.178;7.570;2022-12-29T15:30:27;96298.25;;;8.04;72.21
47330;BME280;33060;50.178;7.570;2022-12-29T15:32:54;96300.59;;;7.96;72.24
47330;BME280;33060;50.178;7.570;2022-12-29T15:35:49;96306.91;;;7.93;72.33
47330;BME280;33060;50.178;7.570;2022-12-29T15:38:25;96305.13;;;7.93;72.60
47330;BME280;33060;50.178;7.570;2022-12-29T15:41:06;96309.97;;;7.87;72.83
47330;BME280;33060;50.178;7.570;2022-12-29T15:46:27;96300.53;;;7.84;72.35
47330;BME280;33060;50.178;7.570;2022-12-29T15:48:56;96310.84;;;7.75;72.31
47330;BME280;33060;50.178;7.570;2022-12-29T15:51:28;96304.47;;;7.66;72.26